Terminal Aerodrome Forecast
Issued by NWS Binghamton, NY

Current Version | Previous Version | Text Only | Print | Product List | Glossary On
Versions: 1 2 3 4 5 6 7 8 9 10 11 12 13 14 15 16 17 18 19 20 21 22
000
FTUS41 KBGM 201120
TAFAVP
TAF
KAVP 201120Z 2012/2112 VRB03KT P6SM OVC015
     FM201900 18005KT 2SM -RA OVC015
     FM202000 17005KT 4SM BR OVC008
     FM210300 19004KT 4SM BR OVC008=

USA.gov is the U.S. government's official web portal to all federal, state and local government web resources and services.